Time;durP1;ratioP1;P1;durP2;ratioP2;P2;SDS_P1;SDS_P2;PMS_P1;PMS_P2;Temp;Humidity;BMP_temperature;BMP_pressure;BME280_temperature;BME280_humidity;BME280_pressure;Samples;Min_cycle;Max_cycle;Signal;HPM_P1;HPM_P2
2023/08/21 00:00:49;;;;;;;9.10;6.05;;;24.30;99.90;;;;;;4990064;28;20026;-78
2023/08/21 00:03:14;;;;;;;7.32;5.60;;;24.30;99.90;;;;;;4989115;28;20080;-78
2023/08/21 00:05:40;;;;;;;6.55;5.63;;;24.30;99.90;;;;;;4990973;28;20052;-78
2023/08/21 00:08:06;;;;;;;9.48;5.60;;;24.30;99.90;;;;;;4989962;28;20469;-78
2023/08/21 00:10:37;;;;;;;11.20;6.18;;;24.20;99.90;;;;;;4990817;28;20014;-79
2023/08/21 00:13:06;;;;;;;7.43;5.70;;;24.20;99.90;;;;;;4992808;28;20027;-79
2023/08/21 00:15:32;;;;;;;7.30;5.65;;;24.10;99.90;;;;;;4996221;28;20026;-78
2023/08/21 00:17:58;;;;;;;10.85;5.90;;;24.10;99.90;;;;;;4990977;28;20041;-78
2023/08/21 00:20:23;;;;;;;9.85;6.00;;;24.10;99.90;;;;;;4993580;28;20031;-78
2023/08/21 00:22:49;;;;;;;10.52;6.18;;;24.00;99.90;;;;;;4999251;28;20029;-78
2023/08/21 00:25:18;;;;;;;7.10;5.30;;;24.00;99.90;;;;;;4998843;28;20034;-78
2023/08/21 00:27:43;;;;;;;10.90;6.00;;;24.00;99.90;;;;;;5000171;28;20064;-78
2023/08/21 00:30:14;;;;;;;8.00;5.18;;;23.90;99.90;;;;;;4995125;28;20023;-78
2023/08/21 00:32:40;;;;;;;10.30;5.97;;;23.90;99.90;;;;;;4995286;28;20033;-77
2023/08/21 00:35:09;;;;;;;9.38;6.32;;;23.90;99.90;;;;;;4990168;28;20038;-78
2023/08/21 00:37:34;;;;;;;8.65;5.88;;;23.90;99.90;;;;;;4999894;28;20058;-79
2023/08/21 00:40:00;;;;;;;7.60;5.45;;;23.90;99.90;;;;;;4998904;28;20037;-78
2023/08/21 00:42:26;;;;;;;8.32;6.18;;;23.90;99.90;;;;;;4997877;28;20101;-79
2023/08/21 00:44:51;;;;;;;8.20;5.60;;;23.80;99.90;;;;;;4997092;28;20034;-78
2023/08/21 00:47:19;;;;;;;6.28;5.45;;;23.90;99.90;;;;;;4994377;28;20048;-78
2023/08/21 00:49:45;;;;;;;8.48;5.82;;;23.80;99.90;;;;;;4991144;28;20018;-77
2023/08/21 00:52:15;;;;;;;9.13;5.88;;;23.80;99.90;;;;;;4987048;28;20018;-78
2023/08/21 00:54:43;;;;;;;9.43;6.10;;;23.80;99.90;;;;;;4992126;28;20139;-78
2023/08/21 00:57:10;;;;;;;7.97;6.38;;;23.70;99.90;;;;;;4990948;28;20125;-77
2023/08/21 00:59:37;;;;;;;10.57;5.93;;;23.70;99.90;;;;;;4990713;28;20500;-79
2023/08/21 01:02:03;;;;;;;9.50;6.00;;;23.70;99.90;;;;;;4988980;28;20026;-78
2023/08/21 01:04:35;;;;;;;9.77;6.32;;;23.70;99.90;;;;;;4991656;28;20104;-78
2023/08/21 01:07:00;;;;;;;8.63;5.95;;;23.70;99.90;;;;;;5006076;28;20414;-78
2023/08/21 01:09:45;;;;;;;11.88;6.28;;;23.60;99.90;;;;;;4997144;28;20042;-78
2023/08/21 01:12:13;;;;;;;9.23;6.60;;;23.60;99.90;;;;;;5006218;28;20018;-79
2023/08/21 01:14:58;;;;;;;10.93;6.00;;;23.60;99.90;;;;;;4999967;28;20014;-78
2023/08/21 01:17:25;;;;;;;8.77;6.10;;;23.60;99.90;;;;;;4993301;28;20034;-79
2023/08/21 01:19:51;;;;;;;7.40;5.80;;;23.60;99.90;;;;;;4993047;28;20038;-78
2023/08/21 01:22:17;;;;;;;8.38;6.18;;;23.60;99.90;;;;;;4990894;28;20054;-79
2023/08/21 01:24:43;;;;;;;8.80;6.25;;;23.60;99.90;;;;;;4994405;28;20030;-77
2023/08/21 01:27:10;;;;;;;11.57;5.80;;;23.60;99.90;;;;;;5020590;23;20050;-72
2023/08/21 01:29:36;;;;;;;9.15;5.80;;;23.60;99.90;;;;;;4984656;28;20061;-72
2023/08/21 01:32:09;;;;;;;7.13;5.57;;;23.60;99.90;;;;;;4987265;28;20110;-72
2023/08/21 01:34:37;;;;;;;8.95;6.00;;;23.60;99.90;;;;;;4990214;28;20057;-77
2023/08/21 01:37:05;;;;;;;10.82;6.47;;;23.60;99.90;;;;;;4988283;28;20085;-77
2023/08/21 01:39:34;;;;;;;8.55;6.15;;;23.60;99.90;;;;;;4988361;28;20971;-77
2023/08/21 01:42:02;;;;;;;7.60;5.57;;;23.50;99.90;;;;;;4986908;28;20481;-77
2023/08/21 01:44:37;;;;;;;8.65;6.10;;;23.50;99.90;;;;;;4988393;28;20032;-76
2023/08/21 01:47:02;;;;;;;8.43;6.20;;;23.50;99.90;;;;;;4988316;28;20493;-76
2023/08/21 01:49:28;;;;;;;12.38;6.80;;;23.50;99.90;;;;;;4989656;28;20118;-77
2023/08/21 01:51:54;;;;;;;8.30;5.85;;;23.50;99.90;;;;;;5000375;28;20106;-76
2023/08/21 01:54:19;;;;;;;8.70;5.70;;;23.50;99.90;;;;;;4983980;28;20425;-76
2023/08/21 01:56:45;;;;;;;7.63;5.95;;;23.50;99.90;;;;;;4987966;28;20054;-76
2023/08/21 01:59:10;;;;;;;7.38;6.05;;;23.40;99.90;;;;;;4979766;28;20019;-77
2023/08/21 02:01:36;;;;;;;8.23;6.25;;;23.40;99.90;;;;;;4985313;28;20023;-77
2023/08/21 02:04:08;;;;;;;8.68;6.55;;;23.40;99.90;;;;;;5082589;28;20448;-77
2023/08/21 02:06:34;;;;;;;9.27;6.63;;;23.40;99.90;;;;;;5057662;28;20062;-77
2023/08/21 02:08:59;;;;;;;8.95;6.30;;;23.30;99.90;;;;;;5055454;28;20674;-77
2023/08/21 02:11:25;;;;;;;8.80;6.20;;;23.30;99.90;;;;;;5052235;28;20029;-77
2023/08/21 02:13:51;;;;;;;7.95;5.63;;;23.30;99.90;;;;;;5057039;28;20123;-77
2023/08/21 02:16:16;;;;;;;10.85;6.10;;;23.20;99.90;;;;;;5055707;28;20112;-76
2023/08/21 02:18:48;;;;;;;7.60;5.88;;;23.20;99.90;;;;;;5057207;28;20032;-76
2023/08/21 02:21:14;;;;;;;10.98;6.38;;;23.20;99.90;;;;;;5055922;28;20028;-76
2023/08/21 02:23:39;;;;;;;8.18;6.28;;;23.20;99.90;;;;;;5053388;28;20033;-77
2023/08/21 02:26:05;;;;;;;9.60;6.03;;;23.10;99.90;;;;;;5056801;28;20100;-76
2023/08/21 02:28:33;;;;;;;7.35;5.72;;;23.10;99.90;;;;;;5055540;28;20063;-76
2023/08/21 02:31:02;;;;;;;10.65;6.47;;;23.10;99.90;;;;;;5054556;28;20017;-77
2023/08/21 02:33:28;;;;;;;7.90;5.93;;;23.10;99.90;;;;;;5053476;28;20021;-77
2023/08/21 02:35:56;;;;;;;7.82;6.00;;;23.10;99.90;;;;;;5058802;28;20438;-77
2023/08/21 02:38:22;;;;;;;7.45;6.22;;;23.10;99.90;;;;;;5056271;28;20376;-76
2023/08/21 02:40:48;;;;;;;11.60;6.70;;;23.10;99.90;;;;;;5054708;28;20021;-75
2023/08/21 02:43:13;;;;;;;11.20;6.20;;;23.10;99.90;;;;;;5056111;28;20039;-76
2023/08/21 02:45:48;;;;;;;11.43;6.43;;;23.00;99.90;;;;;;5057308;28;20017;-76
2023/08/21 02:48:13;;;;;;;11.00;5.88;;;23.00;99.90;;;;;;5053422;28;20556;-76
2023/08/21 02:50:39;;;;;;;8.65;6.22;;;23.00;99.90;;;;;;5059641;28;20031;-76
2023/08/21 02:53:05;;;;;;;10.60;6.35;;;23.00;99.90;;;;;;5058833;28;20135;-76
2023/08/21 02:55:31;;;;;;;8.77;5.97;;;23.00;99.90;;;;;;5057483;28;20044;-76
2023/08/21 02:57:56;;;;;;;9.68;6.30;;;23.00;99.90;;;;;;5054980;28;20033;-76
2023/08/21 03:00:25;;;;;;;7.93;6.97;;;23.00;99.90;;;;;;5053142;28;20029;-77
2023/08/21 03:02:50;;;;;;;11.35;6.28;;;22.90;99.90;;;;;;5062471;28;20035;-77
2023/08/21 03:05:16;;;;;;;10.43;6.50;;;22.90;99.90;;;;;;5055536;28;20530;-77
2023/08/21 03:07:45;;;;;;;9.60;6.53;;;22.90;99.90;;;;;;5054676;28;20127;-76
2023/08/21 03:10:10;;;;;;;7.88;6.43;;;22.90;99.90;;;;;;5058548;28;20086;-77
2023/08/21 03:12:36;;;;;;;9.48;6.40;;;22.90;99.90;;;;;;5061173;28;20037;-76
2023/08/21 03:15:05;;;;;;;9.13;6.72;;;22.80;99.90;;;;;;5047327;28;20029;-76
2023/08/21 03:17:30;;;;;;;9.55;6.18;;;22.80;99.90;;;;;;5044480;28;20037;-77
2023/08/21 03:19:56;;;;;;;8.93;6.53;;;22.70;99.90;;;;;;5047893;28;20710;-77
2023/08/21 03:22:22;;;;;;;10.20;7.03;;;22.70;99.90;;;;;;5044376;28;20037;-77
2023/08/21 03:24:47;;;;;;;11.32;6.78;;;22.70;99.90;;;;;;5044809;28;20022;-77
2023/08/21 03:27:17;;;;;;;8.20;6.28;;;22.60;99.90;;;;;;5041620;28;20022;-76
2023/08/21 03:29:48;;;;;;;8.20;7.03;;;22.60;99.90;;;;;;5042211;28;20082;-76
2023/08/21 03:32:15;;;;;;;8.82;6.60;;;22.60;99.90;;;;;;5041085;28;20033;-76
2023/08/21 03:34:40;;;;;;;10.90;7.13;;;22.60;99.90;;;;;;5044221;28;20394;-76
2023/08/21 03:37:09;;;;;;;9.25;7.13;;;22.60;99.90;;;;;;5040909;28;20139;-76
2023/08/21 03:39:35;;;;;;;8.95;6.90;;;22.60;99.90;;;;;;5047459;28;20151;-77
2023/08/21 03:42:00;;;;;;;13.27;7.30;;;22.50;99.90;;;;;;5043793;28;20123;-76
2023/08/21 03:44:29;;;;;;;10.70;7.88;;;22.50;99.90;;;;;;5040989;28;20112;-76
2023/08/21 03:46:54;;;;;;;9.07;6.00;;;22.50;99.90;;;;;;5043492;28;20494;-76
2023/08/21 03:49:20;;;;;;;9.13;6.25;;;22.50;99.90;;;;;;5045208;28;20025;-76
2023/08/21 03:51:45;;;;;;;12.40;6.78;;;22.40;99.90;;;;;;5037870;28;20051;-76
2023/08/21 03:54:14;;;;;;;9.52;6.88;;;22.40;99.90;;;;;;5044981;28;20021;-76
2023/08/21 03:56:46;;;;;;;10.63;6.90;;;22.40;99.90;;;;;;5040060;28;20029;-76
2023/08/21 03:59:14;;;;;;;9.98;7.32;;;22.40;99.90;;;;;;5038408;28;20155;-76
2023/08/21 04:01:40;;;;;;;11.57;6.57;;;22.30;99.90;;;;;;5039107;28;20030;-77
2023/08/21 04:04:05;;;;;;;9.02;6.68;;;22.30;99.90;;;;;;5039972;28;20099;-77
2023/08/21 04:06:31;;;;;;;9.18;6.63;;;22.30;99.90;;;;;;5041427;28;20029;-77
2023/08/21 04:08:57;;;;;;;11.13;6.60;;;22.30;99.90;;;;;;5042857;28;20546;-77
2023/08/21 04:11:22;;;;;;;11.35;6.93;;;22.30;99.90;;;;;;5035269;28;20036;-76
2023/08/21 04:13:51;;;;;;;8.70;6.85;;;22.30;99.90;;;;;;5040939;28;20396;-76
2023/08/21 04:16:17;;;;;;;9.35;6.80;;;22.30;99.90;;;;;;5041139;28;20029;-76
2023/08/21 04:18:49;;;;;;;9.93;6.93;;;22.30;99.90;;;;;;5044178;28;20021;-76
2023/08/21 04:21:15;;;;;;;11.23;6.65;;;22.30;99.90;;;;;;5040111;28;20981;-76
2023/08/21 04:23:40;;;;;;;11.18;7.07;;;22.30;99.90;;;;;;5040179;28;20114;-76
2023/08/21 04:26:07;;;;;;;9.95;6.72;;;22.30;99.90;;;;;;5045398;28;20029;-76
2023/08/21 04:28:37;;;;;;;10.35;7.78;;;22.20;99.90;;;;;;5038015;28;20075;-76
2023/08/21 04:31:07;;;;;;;8.23;7.32;;;22.20;99.90;;;;;;5041972;28;20029;-77
2023/08/21 04:33:41;;;;;;;13.27;7.82;;;22.20;99.90;;;;;;5040845;28;20139;-77
2023/08/21 04:36:16;;;;;;;13.35;8.05;;;22.20;99.90;;;;;;5043839;28;20040;-77
2023/08/21 04:38:43;;;;;;;12.60;8.10;;;22.10;99.90;;;;;;5042812;28;23380;-76
2023/08/21 04:41:09;;;;;;;11.27;8.32;;;22.10;99.90;;;;;;5043105;28;20090;-77
2023/08/21 04:43:38;;;;;;;10.45;7.68;;;22.00;99.90;;;;;;5041080;28;20037;-76
2023/08/21 04:46:06;;;;;;;14.15;7.60;;;22.10;99.90;;;;;;5037514;28;20383;-76
2023/08/21 04:48:35;;;;;;;10.90;7.88;;;22.00;99.90;;;;;;5045326;28;21101;-77
2023/08/21 04:51:01;;;;;;;12.30;8.70;;;22.10;99.90;;;;;;5045593;28;20548;-77
2023/08/21 04:53:30;;;;;;;11.50;8.45;;;22.00;99.90;;;;;;5044491;28;20143;-72
2023/08/21 04:55:58;;;;;;;12.82;7.40;;;22.00;99.90;;;;;;5036284;28;20123;-71
2023/08/21 04:58:24;;;;;;;10.27;7.60;;;22.10;99.90;;;;;;5046598;28;20021;-71
2023/08/21 05:00:49;;;;;;;10.65;7.40;;;22.10;99.90;;;;;;5044652;28;20045;-71
2023/08/21 05:03:18;;;;;;;12.68;7.28;;;22.10;99.90;;;;;;5035132;28;20124;-71
2023/08/21 05:05:52;;;;;;;11.75;7.25;;;22.20;99.90;;;;;;5041390;28;20403;-71
2023/08/21 05:08:18;;;;;;;15.18;7.70;;;22.20;99.90;;;;;;5039524;28;20033;-72
2023/08/21 05:10:44;;;;;;;9.25;7.00;;;22.20;99.90;;;;;;5040284;28;20036;-71
2023/08/21 05:13:09;;;;;;;10.88;7.35;;;22.20;99.90;;;;;;5043289;28;20037;-73
2023/08/21 05:15:35;;;;;;;12.05;7.97;;;22.20;99.90;;;;;;5039020;28;20504;-72
2023/08/21 05:18:00;;;;;;;8.20;6.80;;;22.30;99.90;;;;;;5035371;28;20088;-72
2023/08/21 05:20:29;;;;;;;10.57;7.30;;;22.30;99.90;;;;;;5034864;28;20026;-73
2023/08/21 05:22:54;;;;;;;12.05;6.90;;;22.30;99.90;;;;;;5037091;28;20029;-73
2023/08/21 05:25:20;;;;;;;13.85;7.00;;;22.40;99.90;;;;;;5039146;28;20968;-72
2023/08/21 05:27:49;;;;;;;9.68;6.88;;;22.50;99.90;;;;;;5036867;28;20425;-73
2023/08/21 05:30:15;;;;;;;9.35;6.85;;;22.50;99.90;;;;;;5042402;28;20055;-73
2023/08/21 05:32:40;;;;;;;10.23;7.10;;;22.60;99.90;;;;;;5040110;28;20509;-73
2023/08/21 05:35:08;;;;;;;11.88;6.82;;;22.70;99.90;;;;;;5037417;28;20025;-73
2023/08/21 05:37:36;;;;;;;8.43;6.55;;;22.80;99.90;;;;;;5034910;28;20460;-73
2023/08/21 05:40:05;;;;;;;13.27;7.70;;;22.80;99.90;;;;;;5036481;28;20028;-73
2023/08/21 05:42:31;;;;;;;14.55;7.25;;;22.90;99.90;;;;;;5047397;28;20086;-77
2023/08/21 05:45:06;;;;;;;10.35;8.40;;;23.10;99.90;;;;;;5041461;28;20371;-78
2023/08/21 05:47:35;;;;;;;9.60;6.43;;;23.10;99.90;;;;;;5036930;28;20041;-78
2023/08/21 05:50:00;;;;;;;13.25;6.57;;;23.20;99.90;;;;;;5048679;28;20040;-78
2023/08/21 05:52:26;;;;;;;9.80;6.32;;;23.30;99.90;;;;;;5054091;28;20380;-78
2023/08/21 05:54:58;;;;;;;9.43;6.32;;;23.30;99.90;;;;;;5039467;28;20040;-76
2023/08/21 05:57:24;;;;;;;9.98;7.32;;;23.40;99.90;;;;;;5008951;28;20047;-75
2023/08/21 05:59:49;;;;;;;12.85;6.97;;;23.40;99.90;;;;;;5029287;28;20435;-75
2023/08/21 06:02:15;;;;;;;9.35;6.60;;;23.50;99.90;;;;;;5033662;28;20040;-76
2023/08/21 06:04:41;;;;;;;8.73;6.65;;;23.60;99.90;;;;;;5040479;28;20037;-77
2023/08/21 06:07:07;;;;;;;10.40;7.10;;;23.70;99.90;;;;;;5044166;28;20021;-76
2023/08/21 06:09:36;;;;;;;11.05;7.18;;;23.70;99.90;;;;;;5040114;28;20028;-77
2023/08/21 06:12:07;;;;;;;10.50;7.60;;;23.80;99.90;;;;;;5039439;28;20033;-77
2023/08/21 06:14:33;;;;;;;11.50;6.78;;;23.80;99.90;;;;;;5043501;28;20028;-77
2023/08/21 06:17:05;;;;;;;10.50;7.85;;;23.90;99.90;;;;;;5039802;28;20029;-74
2023/08/21 06:19:31;;;;;;;11.75;7.32;;;24.00;99.90;;;;;;5039148;28;20033;-75
2023/08/21 06:21:56;;;;;;;10.50;7.32;;;24.10;99.90;;;;;;5033194;28;20032;-74
2023/08/21 06:24:23;;;;;;;10.35;7.10;;;24.10;99.90;;;;;;5033459;28;20040;-74
2023/08/21 06:26:53;;;;;;;11.70;6.13;;;24.10;99.90;;;;;;5040366;28;20033;-76
2023/08/21 06:29:20;;;;;;;13.20;7.53;;;24.20;99.90;;;;;;5038215;28;20037;-76
2023/08/21 06:31:49;;;;;;;11.13;7.65;;;24.30;99.90;;;;;;5037092;28;20036;-76
2023/08/21 06:34:15;;;;;;;12.90;7.20;;;24.30;99.90;;;;;;5038020;28;20021;-76
2023/08/21 06:36:41;;;;;;;12.45;7.28;;;24.30;99.90;;;;;;5034571;28;20048;-76
2023/08/21 06:39:09;;;;;;;12.85;7.47;;;24.30;99.90;;;;;;5039449;28;20033;-76
2023/08/21 06:41:35;;;;;;;18.02;7.80;;;24.40;99.90;;;;;;5035062;28;20029;-76
2023/08/21 06:44:09;;;;;;;9.02;6.53;;;24.40;99.90;;;;;;5036553;28;20037;-76
2023/08/21 06:46:36;;;;;;;11.27;6.97;;;24.50;99.90;;;;;;5038683;28;20494;-76
2023/08/21 06:49:02;;;;;;;11.10;7.80;;;24.50;99.90;;;;;;5040204;28;20017;-76
2023/08/21 06:51:30;;;;;;;10.00;7.07;;;24.60;99.90;;;;;;5041203;28;20071;-76
2023/08/21 06:53:56;;;;;;;9.88;7.25;;;24.70;99.90;;;;;;5041425;28;20083;-76
2023/08/21 06:56:25;;;;;;;9.55;7.15;;;24.70;99.90;;;;;;5042926;28;20061;-77
2023/08/21 06:58:50;;;;;;;9.50;6.82;;;24.80;99.90;;;;;;5043339;28;20036;-76
2023/08/21 07:01:16;;;;;;;12.02;6.95;;;24.90;99.90;;;;;;5047451;28;20515;-77
2023/08/21 07:03:48;;;;;;;10.70;6.95;;;24.90;99.90;;;;;;5051095;28;20536;-77
2023/08/21 07:06:14;;;;;;;11.20;6.82;;;24.90;99.90;;;;;;5056001;28;20040;-77
2023/08/21 07:08:40;;;;;;;10.13;6.90;;;25.00;99.90;;;;;;5045810;28;20009;-77
2023/08/21 07:11:08;;;;;;;8.90;6.97;;;25.00;99.90;;;;;;5047166;28;20021;-78
2023/08/21 07:13:39;;;;;;;11.15;7.63;;;25.10;99.90;;;;;;5041311;28;20088;-74
2023/08/21 07:16:06;;;;;;;10.65;7.15;;;25.10;99.90;;;;;;5042607;28;20029;-74
2023/08/21 07:18:35;;;;;;;9.55;7.72;;;25.20;99.90;;;;;;5038896;28;20134;-75
2023/08/21 07:21:04;;;;;;;9.63;6.45;;;25.30;99.90;;;;;;5040779;28;20195;-74
2023/08/21 07:23:33;;;;;;;10.70;6.03;;;25.30;99.90;;;;;;5045173;28;20415;-76
2023/08/21 07:25:59;;;;;;;9.77;6.72;;;25.40;99.90;;;;;;5045002;28;20021;-74
2023/08/21 07:28:25;;;;;;;10.40;6.35;;;25.40;99.90;;;;;;5047955;28;20391;-75
2023/08/21 07:30:57;;;;;;;13.65;7.63;;;25.50;99.90;;;;;;5041651;28;20056;-75
2023/08/21 07:33:24;;;;;;;10.00;6.82;;;25.60;99.90;;;;;;5043395;28;20024;-74
2023/08/21 07:36:06;;;;;;;12.40;6.78;;;25.60;99.90;;;;;;5042785;28;20040;-75
2023/08/21 07:38:31;;;;;;;10.48;6.80;;;25.70;99.90;;;;;;5039202;28;20435;-75
2023/08/21 07:41:09;;;;;;;10.15;7.13;;;25.80;99.90;;;;;;5038877;28;20124;-75
2023/08/21 07:43:42;;;;;;;7.25;6.55;;;25.80;99.90;;;;;;5038941;28;21813;-74
2023/08/21 07:46:13;;;;;;;9.10;7.32;;;25.90;99.90;;;;;;5038952;28;20376;-75
2023/08/21 07:48:38;;;;;;;12.63;7.25;;;25.90;99.90;;;;;;5037292;28;20533;-75
2023/08/21 07:51:04;;;;;;;10.07;6.95;;;26.00;99.90;;;;;;5035917;28;20148;-75
2023/08/21 07:53:31;;;;;;;10.68;7.05;;;26.00;99.90;;;;;;5034782;28;20034;-75
2023/08/21 07:55:57;;;;;;;9.25;6.95;;;26.10;99.90;;;;;;5037000;28;20029;-75
2023/08/21 07:58:23;;;;;;;10.02;6.78;;;26.20;99.90;;;;;;5043074;28;20081;-75
2023/08/21 08:00:49;;;;;;;9.15;6.38;;;26.20;99.90;;;;;;5032084;28;20155;-75
2023/08/21 08:03:14;;;;;;;8.35;6.72;;;26.20;99.90;;;;;;5035073;28;20039;-75
2023/08/21 08:05:43;;;;;;;10.27;6.38;;;26.30;99.90;;;;;;5033493;28;20078;-76
2023/08/21 08:08:09;;;;;;;10.90;8.00;;;26.40;99.90;;;;;;5032411;28;20025;-76
2023/08/21 08:10:39;;;;;;;7.75;6.75;;;26.40;99.90;;;;;;5030533;28;20645;-75
2023/08/21 08:13:06;;;;;;;8.77;7.15;;;26.50;99.90;;;;;;5033284;28;22209;-76
2023/08/21 08:15:33;;;;;;;9.43;7.32;;;26.50;99.90;;;;;;5033500;28;20095;-76
2023/08/21 08:17:59;;;;;;;8.95;7.30;;;26.60;99.90;;;;;;5033559;28;20036;-75
2023/08/21 08:20:25;;;;;;;14.73;6.90;;;26.60;99.90;;;;;;5031975;28;20049;-75
2023/08/21 08:22:50;;;;;;;9.73;7.43;;;26.70;99.90;;;;;;5034671;28;20056;-74
2023/08/21 08:25:16;;;;;;;8.02;7.20;;;26.70;99.90;;;;;;5038361;28;20038;-75
2023/08/21 08:27:43;;;;;;;11.07;7.00;;;26.80;99.90;;;;;;5037310;28;20040;-75
2023/08/21 08:30:15;;;;;;;10.25;7.53;;;26.90;99.90;;;;;;5032291;28;20490;-75
2023/08/21 08:32:44;;;;;;;12.07;7.20;;;26.90;99.90;;;;;;5033724;28;20031;-76
2023/08/21 08:35:13;;;;;;;11.43;7.53;;;27.00;99.90;;;;;;5035289;28;20381;-76
2023/08/21 08:37:42;;;;;;;13.85;7.20;;;27.00;99.90;;;;;;5034604;28;20483;-76
2023/08/21 08:40:09;;;;;;;8.40;6.55;;;27.10;99.90;;;;;;5032026;28;20056;-75
2023/08/21 08:42:36;;;;;;;9.85;7.75;;;27.10;99.90;;;;;;5031648;28;20025;-76
2023/08/21 08:45:05;;;;;;;11.38;7.18;;;27.20;99.90;;;;;;5035803;28;20502;-75
2023/08/21 08:47:37;;;;;;;12.35;7.95;;;27.30;99.90;;;;;;5035762;28;20488;-76
2023/08/21 08:50:05;;;;;;;8.10;6.93;;;27.30;99.90;;;;;;5034896;28;21041;-76
2023/08/21 08:52:36;;;;;;;12.48;7.35;;;27.30;99.90;;;;;;5031171;28;20029;-76
2023/08/21 08:55:03;;;;;;;10.35;7.70;;;27.40;99.90;;;;;;5048686;28;20047;-76
2023/08/21 08:57:28;;;;;;;11.10;7.07;;;27.40;99.90;;;;;;5036821;28;20060;-76
2023/08/21 08:59:54;;;;;;;9.20;6.70;;;27.50;99.90;;;;;;5031908;28;20129;-76
2023/08/21 09:02:20;;;;;;;13.65;8.02;;;27.60;99.90;;;;;;5033775;28;20041;-75
2023/08/21 09:04:45;;;;;;;9.73;7.03;;;27.70;99.90;;;;;;5031167;28;20076;-76
2023/08/21 09:07:17;;;;;;;10.13;6.40;;;27.80;99.90;;;;;;5029178;28;20155;-75
2023/08/21 09:09:49;;;;;;;9.90;6.88;;;27.90;99.90;;;;;;5029521;28;20044;-76
2023/08/21 09:12:15;;;;;;;10.93;6.88;;;28.00;99.90;;;;;;5024839;28;20108;-73
2023/08/21 09:14:44;;;;;;;12.05;7.13;;;28.00;99.90;;;;;;5032677;28;20033;-73
2023/08/21 09:17:10;;;;;;;12.20;6.88;;;28.10;99.90;;;;;;5030796;28;20107;-74
2023/08/21 09:19:36;;;;;;;7.90;6.50;;;28.00;99.90;;;;;;5030189;28;20155;-74
2023/08/21 09:22:18;;;;;;;11.90;7.47;;;28.10;99.90;;;;;;5026883;28;20635;-74
2023/08/21 09:25:07;;;;;;;8.95;6.43;;;28.10;99.90;;;;;;5032174;28;20032;-72
2023/08/21 09:27:34;;;;;;;7.53;6.15;;;28.20;99.90;;;;;;5032744;28;21091;-75
2023/08/21 09:30:12;;;;;;;8.95;6.53;;;28.20;99.90;;;;;;5031286;28;20026;-74
2023/08/21 09:33:00;;;;;;;11.73;7.03;;;28.20;99.90;;;;;;5034587;28;20025;-75
2023/08/21 09:35:26;;;;;;;11.68;6.72;;;28.30;99.90;;;;;;5037409;28;20052;-75
2023/08/21 09:37:54;;;;;;;12.10;7.22;;;28.30;99.90;;;;;;5039880;28;20526;-75
2023/08/21 09:40:22;;;;;;;10.43;6.90;;;28.40;99.90;;;;;;5034607;28;20484;-75
2023/08/21 09:42:55;;;;;;;12.07;7.00;;;28.40;99.90;;;;;;5035133;28;20028;-74
2023/08/21 09:45:25;;;;;;;9.65;6.38;;;28.40;99.90;;;;;;5038745;28;20029;-75
2023/08/21 09:47:52;;;;;;;10.43;6.10;;;28.40;99.90;;;;;;5038987;28;20036;-75
2023/08/21 09:50:19;;;;;;;16.65;7.30;;;28.40;99.90;;;;;;5042799;28;20033;-75
2023/08/21 09:52:45;;;;;;;9.20;6.05;;;28.50;99.90;;;;;;5033176;28;20059;-74
2023/08/21 09:55:13;;;;;;;9.40;6.78;;;28.50;99.90;;;;;;5032647;28;20036;-75
2023/08/21 09:57:42;;;;;;;11.80;6.60;;;28.60;99.90;;;;;;5028279;28;20112;-74
2023/08/21 10:00:15;;;;;;;9.98;6.70;;;28.60;99.90;;;;;;5035501;28;20506;-75
2023/08/21 10:02:50;;;;;;;10.60;6.40;;;28.70;99.90;;;;;;5036483;28;20288;-74
2023/08/21 10:05:19;;;;;;;11.07;6.18;;;28.70;99.90;;;;;;5030079;28;20277;-74
2023/08/21 10:07:49;;;;;;;10.68;6.43;;;28.70;99.90;;;;;;5033332;28;20044;-75
2023/08/21 10:10:17;;;;;;;10.00;7.35;;;28.80;99.90;;;;;;5032496;28;20076;-74
2023/08/21 10:12:49;;;;;;;9.50;6.25;;;28.80;99.90;;;;;;5030024;28;20492;-75
2023/08/21 10:15:16;;;;;;;13.23;6.70;;;28.90;99.90;;;;;;5029940;28;20403;-75
2023/08/21 10:17:47;;;;;;;8.73;6.28;;;29.00;99.90;;;;;;5027616;28;20037;-74
2023/08/21 10:20:24;;;;;;;9.05;6.45;;;29.10;99.90;;;;;;5029876;28;20550;-75
2023/08/21 10:22:54;;;;;;;9.02;7.18;;;29.10;99.90;;;;;;5026320;28;20027;-75
2023/08/21 10:25:28;;;;;;;8.40;6.10;;;29.20;99.90;;;;;;5031390;28;20739;-75
2023/08/21 10:27:55;;;;;;;9.10;7.10;;;29.30;99.90;;;;;;5040207;28;20448;-74
2023/08/21 10:30:30;;;;;;;8.52;6.65;;;29.30;99.80;;;;;;5035938;28;20032;-73
2023/08/21 10:32:57;;;;;;;8.23;6.20;;;29.30;99.80;;;;;;5029438;28;20048;-73
2023/08/21 10:35:30;;;;;;;9.90;6.45;;;29.30;99.50;;;;;;5032944;28;20091;-74
2023/08/21 10:38:17;;;;;;;10.07;6.53;;;29.30;99.50;;;;;;5030845;28;20119;-75
2023/08/21 10:41:08;;;;;;;10.23;6.20;;;29.40;99.50;;;;;;5038328;28;20028;-75
2023/08/21 10:43:44;;;;;;;8.82;6.20;;;29.40;99.40;;;;;;5039626;28;20379;-75
2023/08/21 10:46:11;;;;;;;9.85;6.90;;;29.50;99.30;;;;;;5032131;28;20030;-72
2023/08/21 10:48:37;;;;;;;8.23;6.00;;;29.50;99.20;;;;;;5033220;28;20103;-72
2023/08/21 10:51:05;;;;;;;7.47;6.47;;;29.60;99.10;;;;;;5034860;28;20037;-73
2023/08/21 10:53:31;;;;;;;8.82;6.68;;;29.50;98.90;;;;;;5034883;28;20067;-72
2023/08/21 10:56:00;;;;;;;8.52;6.32;;;29.60;98.80;;;;;;5035609;28;20028;-74
2023/08/21 10:58:26;;;;;;;9.60;6.35;;;29.70;98.60;;;;;;5037268;28;20065;-73
2023/08/21 11:00:59;;;;;;;10.52;6.18;;;29.70;98.40;;;;;;5039913;28;20094;-72
2023/08/21 11:03:24;;;;;;;7.20;6.05;;;29.70;98.10;;;;;;5036209;28;20087;-73
2023/08/21 11:06:04;;;;;;;8.00;5.85;;;29.80;98.10;;;;;;5041538;28;20029;-72
2023/08/21 11:08:34;;;;;;;9.63;6.10;;;29.80;97.90;;;;;;5039855;28;21286;-73
2023/08/21 11:11:01;;;;;;;7.80;5.85;;;29.80;97.60;;;;;;5032781;28;20080;-73
2023/08/21 11:13:27;;;;;;;10.70;6.38;;;29.80;97.50;;;;;;5037792;28;20055;-74
2023/08/21 11:16:06;;;;;;;8.05;5.85;;;29.80;97.50;;;;;;5042087;28;20033;-73
2023/08/21 11:18:32;;;;;;;9.32;6.10;;;29.80;97.30;;;;;;5041275;28;20071;-73
2023/08/21 11:21:09;;;;;;;8.00;6.03;;;29.80;97.50;;;;;;5032791;28;20041;-74
2023/08/21 11:23:37;;;;;;;8.18;6.10;;;29.90;97.30;;;;;;5041398;28;20501;-74
2023/08/21 11:26:03;;;;;;;11.45;5.68;;;29.90;97.20;;;;;;5038124;28;20033;-73
2023/08/21 11:28:32;;;;;;;7.78;5.57;;;30.00;97.20;;;;;;5035538;28;20037;-75
2023/08/21 11:30:59;;;;;;;7.80;5.93;;;30.00;96.70;;;;;;5037868;28;20026;-75
2023/08/21 11:33:26;;;;;;;7.80;5.90;;;30.10;96.80;;;;;;5037115;28;20103;-75
2023/08/21 11:35:53;;;;;;;7.20;5.68;;;30.10;96.90;;;;;;5032366;28;20488;-74
2023/08/21 11:38:22;;;;;;;10.85;6.43;;;30.20;96.70;;;;;;5038721;28;20702;-74
2023/08/21 11:41:20;;;;;;;8.75;6.35;;;30.20;96.60;;;;;;5032953;28;20029;-74
2023/08/21 11:43:46;;;;;;;9.50;6.65;;;30.20;96.40;;;;;;5004626;28;20045;-73
2023/08/21 11:46:18;;;;;;;9.20;6.40;;;30.20;96.40;;;;;;5034310;28;20045;-73
2023/08/21 11:48:45;;;;;;;8.80;6.07;;;30.20;96.30;;;;;;5036357;28;20029;-73
2023/08/21 11:51:11;;;;;;;8.23;5.60;;;30.30;96.30;;;;;;5037566;28;20030;-74
2023/08/21 11:53:39;;;;;;;6.40;5.68;;;30.30;96.00;;;;;;5036362;28;20028;-74
2023/08/21 11:56:16;;;;;;;7.07;6.38;;;30.30;95.90;;;;;;5034294;28;20476;-73
2023/08/21 11:58:45;;;;;;;8.43;6.45;;;30.40;95.80;;;;;;5032059;28;20052;-73
2023/08/21 12:01:15;;;;;;;8.45;5.70;;;30.40;95.70;;;;;;5038717;28;20555;-73
2023/08/21 12:03:41;;;;;;;8.48;5.82;;;30.40;95.70;;;;;;5031975;28;20442;-74
2023/08/21 12:06:11;;;;;;;8.63;6.53;;;30.50;95.80;;;;;;5032858;28;20037;-75
2023/08/21 12:08:40;;;;;;;10.38;6.72;;;30.60;96.00;;;;;;5033809;28;20021;-73
2023/08/21 12:11:07;;;;;;;9.90;6.15;;;30.50;95.60;;;;;;5030999;28;20053;-73
2023/08/21 12:13:33;;;;;;;8.93;6.53;;;30.60;95.40;;;;;;5032608;28;20030;-73
2023/08/21 12:15:59;;;;;;;7.78;5.28;;;30.60;95.10;;;;;;5032403;28;20542;-73
2023/08/21 12:18:30;;;;;;;9.57;6.82;;;30.60;94.90;;;;;;5039826;28;20395;-73
2023/08/21 12:20:56;;;;;;;11.55;6.22;;;30.60;94.80;;;;;;5034830;28;20021;-73
2023/08/21 12:23:22;;;;;;;8.88;5.97;;;30.60;94.50;;;;;;5036146;28;20468;-73
2023/08/21 12:25:47;;;;;;;12.32;6.82;;;30.60;94.70;;;;;;5037337;28;20504;-73
2023/08/21 12:28:13;;;;;;;9.07;5.65;;;30.60;94.60;;;;;;5029150;28;20040;-75
2023/08/21 12:30:38;;;;;;;12.52;7.07;;;30.70;94.40;;;;;;5036744;28;20013;-72
2023/08/21 12:33:04;;;;;;;9.30;6.63;;;30.60;94.20;;;;;;5036660;28;20032;-74
2023/08/21 12:35:30;;;;;;;6.57;5.80;;;30.60;94.20;;;;;;5036471;28;20032;-76
2023/08/21 12:38:05;;;;;;;8.68;6.47;;;30.70;94.30;;;;;;5040333;28;20136;-74
2023/08/21 12:40:31;;;;;;;10.45;5.82;;;30.70;94.10;;;;;;5033557;28;20029;-74
2023/08/21 12:42:57;;;;;;;7.78;5.80;;;30.80;94.10;;;;;;5035594;28;20017;-74
2023/08/21 12:45:22;;;;;;;9.30;6.50;;;30.80;94.10;;;;;;5031628;28;20028;-74
2023/08/21 12:47:48;;;;;;;10.68;6.57;;;30.80;94.10;;;;;;5028859;28;20052;-74